Kezdőlap
METAR-TAF:

METAR-TAF

Repülőterek :

Concord, New Hampshire, Amerikai Egyesült Államok

földrajzi szélesség: 43-11-43N, földrajzi hosszúság: 071-30-04W, magasság: 105 m

Jelenlegi meteorológiai megfigyelések

A jelentés 15 perccel ezelõtt készült, 17:51 UTC
Szélcsend
Hőmérséklet 8°C
Páratartalom 39%
Légköri nyomás 1018 hPa
Látótávolság: 16.1 km
Derült ég

METAR: KCON 231751Z AUTO 00000KT 10SM CLR 08/M05 A3006 RMK AO2 SLP182 T00831050 10083 21089 58023

Idő: 13:06 (18:06 UTC)

Előrejelzés

A jelentés 35 perccel ezelõtt készült, 17:31 UTC
Az előrejelzés 23-én 18 óra UTC és 24-én 18 óra UTC között érvényes
Nyugati szél 5 kt
Látótávolság: 10 km
Kevés felhő 25000 lábon

TAF: KCON 231731Z 2318/2418 27005KT P6SM FEW250

Meteorológiai megfigyelések és előrejelzések több, mint 4000 repülőtéren (METAR és TAF jelentéseket).

A térképen piros és sárga pontok jelzik az elérhető meteorológiai állomásokat.

Mozgassa az egeret a pont fölött, hogy megjelenjen az állomás neve.

Azután kattintson az időjárási megfigyelések és előrejelzések megtekintéséhez.

A térkép megváltoztatása: kattintson a fekete keresztel jelölt zöld gombra ráközelítéshez, a vonallal jelölt zöld gombra távolításhoz, vagy a zöld nyilakra a szomszédos térképek eléréséhez.


METAR-TAF: